Time;durP1;ratioP1;P1;durP2;ratioP2;P2;SDS_P1;SDS_P2;PMS_P1;PMS_P2;Temp;Humidity;BMP_temperature;BMP_pressure;BME280_temperature;BME280_humidity;BME280_pressure;Samples;Min_cycle;Max_cycle;Signal;HPM_P1;HPM_P2
2023/11/08 00:01:47;;;;;;;;;;;;;;;10.56;99.95;99620.56;5030591;28;19940;-70
2023/11/08 00:04:13;;;;;;;;;;;;;;;10.14;100.00;99626.63;5031656;28;19913;-70
2023/11/08 00:06:39;;;;;;;;;;;;;;;10.05;100.00;99624.66;5030230;28;20350;-70
2023/11/08 00:09:05;;;;;;;;;;;;;;;9.88;100.00;99619.06;5029126;28;19933;-70
2023/11/08 00:11:30;;;;;;;;;;;;;;;9.83;100.00;99604.13;5034568;28;20422;-70
2023/11/08 00:13:57;;;;;;;;;;;;;;;9.91;100.00;99610.84;5038158;28;19913;-70
2023/11/08 00:16:22;;;;;;;;;;;;;;;10.34;100.00;99611.16;5038243;28;19913;-70
2023/11/08 00:18:48;;;;;;;;;;;;;;;10.43;100.00;99598.03;5038114;28;19970;-70
2023/11/08 00:21:13;;;;;;;;;;;;;;;10.44;100.00;99596.06;5037675;28;19952;-70
2023/11/08 00:23:41;;;;;;;;;;;;;;;10.15;100.00;99594.75;5031583;28;20008;-70
2023/11/08 00:26:06;;;;;;;;;;;;;;;10.31;100.00;99587.47;5018359;28;20376;-70
2023/11/08 00:28:32;;;;;;;;;;;;;;;10.51;100.00;99574.84;5016936;28;19918;-70
2023/11/08 00:30:58;;;;;;;;;;;;;;;10.60;99.58;99568.38;5020283;28;19979;-70
2023/11/08 00:33:24;;;;;;;;;;;;;;;10.66;98.58;99561.47;5036461;28;19924;-70
2023/11/08 00:35:49;;;;;;;;;;;;;;;10.77;97.21;99565.56;5038060;28;19956;-70
2023/11/08 00:38:15;;;;;;;;;;;;;;;10.44;98.89;99566.13;5037732;28;19936;-70
2023/11/08 00:40:40;;;;;;;;;;;;;;;10.66;97.85;99553.88;5027874;28;20000;-70
2023/11/08 00:43:05;;;;;;;;;;;;;;;10.58;98.51;99545.53;5036749;28;19967;-70
2023/11/08 00:45:31;;;;;;;;;;;;;;;10.74;97.09;99555.03;5036654;28;20404;-70
2023/11/08 00:47:56;;;;;;;;;;;;;;;10.67;96.12;99560.31;5037969;28;20008;-70
2023/11/08 00:50:21;;;;;;;;;;;;;;;10.59;96.50;99552.75;5036496;28;20446;-71
2023/11/08 00:52:50;;;;;;;;;;;;;;;10.63;96.26;99542.56;5036513;28;19917;-71
2023/11/08 00:55:15;;;;;;;;;;;;;;;10.63;95.46;99562.97;5036120;28;20446;-70
2023/11/08 00:57:41;;;;;;;;;;;;;;;10.52;96.11;99562.50;5027586;28;19922;-70
2023/11/08 01:00:08;;;;;;;;;;;;;;;10.60;96.45;99560.00;5027433;28;20015;-70
2023/11/08 01:02:33;;;;;;;;;;;;;;;10.71;95.91;99557.69;5036576;28;19944;-70
2023/11/08 01:04:59;;;;;;;;;;;;;;;10.52;96.34;99550.47;5036669;28;19983;-70
2023/11/08 01:07:24;;;;;;;;;;;;;;;10.58;96.82;99542.72;5037613;28;19917;-70
2023/11/08 01:09:49;;;;;;;;;;;;;;;10.62;96.76;99543.72;5036553;28;19921;-70
2023/11/08 01:12:15;;;;;;;;;;;;;;;10.44;96.43;99540.13;5037820;28;19952;-70
2023/11/08 01:14:41;;;;;;;;;;;;;;;10.36;98.61;99534.22;5035814;28;20375;-70
2023/11/08 01:17:07;;;;;;;;;;;;;;;10.46;97.40;99527.47;5037901;28;20397;-70
2023/11/08 01:19:35;;;;;;;;;;;;;;;10.53;96.95;99538.13;5030941;28;19924;-70
2023/11/08 01:22:01;;;;;;;;;;;;;;;10.63;96.66;99531.38;5014472;28;19914;-70
2023/11/08 01:24:28;;;;;;;;;;;;;;;10.63;95.97;99523.78;5013423;28;19913;-70
2023/11/08 01:26:53;;;;;;;;;;;;;;;10.39;96.74;99515.94;5014824;28;20316;-70
2023/11/08 01:29:19;;;;;;;;;;;;;;;10.46;97.11;99516.28;5014232;28;19930;-70
2023/11/08 01:31:44;;;;;;;;;;;;;;;10.48;96.45;99513.97;5028395;28;19925;-70
2023/11/08 01:34:11;;;;;;;;;;;;;;;10.58;96.24;99512.81;5031968;28;19924;-70
2023/11/08 01:36:37;;;;;;;;;;;;;;;10.53;96.12;99510.16;5034305;28;20007;-70
2023/11/08 01:39:03;;;;;;;;;;;;;;;10.03;98.81;99494.81;5032135;28;19945;-70
2023/11/08 01:41:28;;;;;;;;;;;;;;;10.31;98.57;99503.59;5032888;28;20300;-70
2023/11/08 01:43:53;;;;;;;;;;;;;;;10.41;98.40;99502.50;5033837;28;19917;-70
2023/11/08 01:46:22;;;;;;;;;;;;;;;10.20;99.02;99494.78;5033808;28;19952;-70
2023/11/08 01:48:48;;;;;;;;;;;;;;;10.29;99.31;99497.53;5032991;28;20027;-70
2023/11/08 01:51:14;;;;;;;;;;;;;;;10.44;98.86;99479.44;5031908;28;19917;-70
2023/11/08 01:53:40;;;;;;;;;;;;;;;10.28;98.69;99470.72;5033988;28;20398;-70
2023/11/08 01:56:10;;;;;;;;;;;;;;;10.32;99.30;99477.31;5033544;28;20340;-70
2023/11/08 01:58:38;;;;;;;;;;;;;;;10.33;99.07;99478.13;5033907;28;20022;-70
2023/11/08 02:01:07;;;;;;;;;;;;;;;10.28;98.62;99486.72;5032656;28;19974;-70
2023/11/08 02:03:34;;;;;;;;;;;;;;;10.17;99.49;99478.66;5032216;28;19917;-70
2023/11/08 02:06:00;;;;;;;;;;;;;;;10.21;99.57;99473.25;5030756;28;19928;-70
2023/11/08 02:08:25;;;;;;;;;;;;;;;10.22;99.13;99472.09;5033636;28;19917;-70
2023/11/08 02:10:51;;;;;;;;;;;;;;;10.05;99.76;99476.53;5032409;28;20433;-70
2023/11/08 02:13:16;;;;;;;;;;;;;;;9.94;100.00;99483.63;5033683;28;19913;-70
2023/11/08 02:15:42;;;;;;;;;;;;;;;9.60;100.00;99488.09;5032248;28;20365;-70
2023/11/08 02:18:07;;;;;;;;;;;;;;;9.57;100.00;99481.19;5031705;28;19922;-70
2023/11/08 02:20:33;;;;;;;;;;;;;;;9.35;100.00;99482.97;5025322;28;20388;-70
2023/11/08 02:22:58;;;;;;;;;;;;;;;9.63;100.00;99491.03;5013629;28;19924;-70
2023/11/08 02:25:24;;;;;;;;;;;;;;;9.39;100.00;99474.78;5013617;28;20016;-70
2023/11/08 02:27:49;;;;;;;;;;;;;;;9.54;100.00;99470.69;5013502;28;19914;-70
2023/11/08 02:30:14;;;;;;;;;;;;;;;9.67;100.00;99466.91;5031485;28;19936;-70
2023/11/08 02:32:40;;;;;;;;;;;;;;;9.72;100.00;99473.47;5033269;28;20409;-70
2023/11/08 02:35:05;;;;;;;;;;;;;;;9.69;100.00;99470.19;5032015;28;19974;-70
2023/11/08 02:37:31;;;;;;;;;;;;;;;9.40;100.00;99476.41;5027990;28;19925;-70
2023/11/08 02:39:56;;;;;;;;;;;;;;;9.18;100.00;99483.75;5019168;28;19917;-70
2023/11/08 02:42:21;;;;;;;;;;;;;;;9.39;100.00;99470.00;5032713;28;19960;-70
2023/11/08 02:44:47;;;;;;;;;;;;;;;9.47;100.00;99476.75;5033107;28;19913;-70
2023/11/08 02:47:12;;;;;;;;;;;;;;;9.53;100.00;99475.44;5031647;28;19913;-70
2023/11/08 02:49:37;;;;;;;;;;;;;;;9.46;100.00;99479.88;5030580;28;20292;-70
2023/11/08 02:52:03;;;;;;;;;;;;;;;9.40;100.00;99465.25;5030644;28;19923;-70
2023/11/08 02:54:28;;;;;;;;;;;;;;;9.66;100.00;99479.22;5019652;28;20371;-70
2023/11/08 02:56:53;;;;;;;;;;;;;;;9.59;100.00;99466.88;5032694;28;20396;-70
2023/11/08 02:59:20;;;;;;;;;;;;;;;9.32;100.00;99471.63;5031476;28;19917;-70
2023/11/08 03:01:45;;;;;;;;;;;;;;;9.41;100.00;99475.25;5031390;28;19913;-70
2023/11/08 03:04:10;;;;;;;;;;;;;;;9.12;100.00;99473.91;5032703;28;20059;-70
2023/11/08 03:06:36;;;;;;;;;;;;;;;9.27;100.00;99479.03;5032292;28;19920;-70
2023/11/08 03:09:02;;;;;;;;;;;;;;;9.44;100.00;99479.38;5032473;28;19972;-70
2023/11/08 03:11:27;;;;;;;;;;;;;;;9.60;100.00;99479.72;5029142;28;19924;-70
2023/11/08 03:13:53;;;;;;;;;;;;;;;9.76;100.00;99489.22;5031173;28;19917;-70
2023/11/08 03:16:18;;;;;;;;;;;;;;;9.61;100.00;99489.75;5031929;28;19932;-70
2023/11/08 03:18:44;;;;;;;;;;;;;;;9.49;100.00;99490.38;5030920;28;19917;-70
2023/11/08 03:21:09;;;;;;;;;;;;;;;9.49;100.00;99479.19;5031065;28;19913;-70
2023/11/08 03:23:34;;;;;;;;;;;;;;;9.48;100.00;99483.97;5032415;28;19924;-70
2023/11/08 03:26:00;;;;;;;;;;;;;;;9.51;100.00;99482.47;5030930;28;19967;-70
2023/11/08 03:28:25;;;;;;;;;;;;;;;9.43;100.00;99503.66;5028507;28;20032;-70
2023/11/08 03:30:50;;;;;;;;;;;;;;;9.51;100.00;99486.13;5031265;28;20387;-70
2023/11/08 03:33:16;;;;;;;;;;;;;;;9.07;100.00;99502.78;5032431;28;20012;-70
2023/11/08 03:35:41;;;;;;;;;;;;;;;8.99;100.00;99496.03;5032555;28;19920;-69
2023/11/08 03:38:06;;;;;;;;;;;;;;;9.20;100.00;99489.84;5031103;28;19913;-69
2023/11/08 03:40:31;;;;;;;;;;;;;;;9.37;100.00;99494.63;5031130;28;19963;-70
2023/11/08 03:42:57;;;;;;;;;;;;;;;9.35;100.00;99484.94;5030360;28;19928;-70
2023/11/08 03:45:22;;;;;;;;;;;;;;;9.16;100.00;99491.66;5013247;28;19913;-70
2023/11/08 03:47:47;;;;;;;;;;;;;;;9.29;100.00;99487.09;5010794;28;19917;-70
2023/11/08 03:50:13;;;;;;;;;;;;;;;9.00;100.00;99491.28;5017617;28;19921;-70
2023/11/08 03:52:40;;;;;;;;;;;;;;;9.24;100.00;99488.06;5031937;28;19970;-70
2023/11/08 03:55:06;;;;;;;;;;;;;;;9.40;100.00;99482.78;5031868;28;19936;-70
2023/11/08 03:57:31;;;;;;;;;;;;;;;9.60;100.00;99469.34;5026367;28;19921;-70
2023/11/08 03:59:57;;;;;;;;;;;;;;;9.77;100.00;99462.94;5015646;28;19995;-70
2023/11/08 04:02:23;;;;;;;;;;;;;;;9.81;100.00;99458.31;5031859;28;20388;-70
2023/11/08 04:04:49;;;;;;;;;;;;;;;9.88;100.00;99473.78;5031496;28;19924;-70
2023/11/08 04:07:14;;;;;;;;;;;;;;;9.79;100.00;99463.44;5030392;28;20260;-70
2023/11/08 04:09:40;;;;;;;;;;;;;;;9.96;100.00;99459.00;5029219;28;19917;-70
2023/11/08 04:12:06;;;;;;;;;;;;;;;9.98;100.00;99456.69;5031602;28;20302;-70
2023/11/08 04:14:31;;;;;;;;;;;;;;;9.95;100.00;99452.56;5030351;28;20004;-70
2023/11/08 04:16:56;;;;;;;;;;;;;;;9.20;100.00;99455.53;5029714;28;19921;-70
2023/11/08 04:19:22;;;;;;;;;;;;;;;9.32;100.00;99455.72;5030339;28;19921;-70
2023/11/08 04:21:49;;;;;;;;;;;;;;;9.58;100.00;99449.31;5030140;28;20311;-70
2023/11/08 04:24:14;;;;;;;;;;;;;;;9.62;100.00;99446.69;5030339;28;19959;-70
2023/11/08 04:26:40;;;;;;;;;;;;;;;9.44;100.00;99454.25;5031262;28;19945;-68
2023/11/08 04:29:05;;;;;;;;;;;;;;;9.22;100.00;99462.41;5031548;28;19917;-69
2023/11/08 04:31:30;;;;;;;;;;;;;;;9.51;100.00;99472.16;5022557;28;20398;-68
2023/11/08 04:33:56;;;;;;;;;;;;;;;9.75;100.00;99472.78;5028452;28;20430;-68
2023/11/08 04:36:21;;;;;;;;;;;;;;;9.90;100.00;99458.34;5027418;28;19917;-69
2023/11/08 04:38:47;;;;;;;;;;;;;;;9.84;100.00;99470.81;5029901;28;19913;-69
2023/11/08 04:41:13;;;;;;;;;;;;;;;9.89;100.00;99475.41;5030212;28;19924;-69
2023/11/08 04:43:38;;;;;;;;;;;;;;;9.91;100.00;99456.34;5031218;28;19913;-69
2023/11/08 04:46:03;;;;;;;;;;;;;;;9.59;100.00;99455.72;5031446;28;19913;-69
2023/11/08 04:48:28;;;;;;;;;;;;;;;9.66;100.00;99450.47;5030339;28;19983;-69
2023/11/08 04:50:54;;;;;;;;;;;;;;;9.65;100.00;99438.47;5023759;28;19917;-69
2023/11/08 04:53:19;;;;;;;;;;;;;;;9.89;100.00;99445.50;5026007;28;19918;-69
2023/11/08 04:55:44;;;;;;;;;;;;;;;9.23;100.00;99443.72;5029655;28;19921;-69
2023/11/08 04:58:10;;;;;;;;;;;;;;;8.97;100.00;99450.06;5019771;28;19917;-68
2023/11/08 05:00:35;;;;;;;;;;;;;;;9.40;100.00;99460.47;5033726;28;19923;-68
2023/11/08 05:03:00;;;;;;;;;;;;;;;9.50;100.00;99452.91;5034470;28;19920;-69
2023/11/08 05:05:26;;;;;;;;;;;;;;;9.52;100.00;99464.56;5034719;28;19943;-68
2023/11/08 05:07:51;;;;;;;;;;;;;;;9.41;100.00;99445.38;5032392;28;19971;-69
2023/11/08 05:10:17;;;;;;;;;;;;;;;9.34;100.00;99436.66;5033400;28;19917;-69
2023/11/08 05:12:42;;;;;;;;;;;;;;;9.52;100.00;99429.13;5029747;28;19924;-69
2023/11/08 05:15:09;;;;;;;;;;;;;;;9.53;100.00;99433.53;5032882;28;20312;-68
2023/11/08 05:17:37;;;;;;;;;;;;;;;9.63;100.00;99426.78;5032962;28;19924;-70
2023/11/08 05:20:04;;;;;;;;;;;;;;;9.76;100.00;99435.31;5032087;28;19924;-69
2023/11/08 05:22:29;;;;;;;;;;;;;;;9.81;100.00;99422.00;5026105;28;19928;-70
2023/11/08 05:24:54;;;;;;;;;;;;;;;9.98;100.00;99446.31;5014575;28;19914;-70
2023/11/08 05:27:20;;;;;;;;;;;;;;;9.89;100.00;99444.69;5014663;28;19920;-70
2023/11/08 05:29:45;;;;;;;;;;;;;;;9.93;100.00;99437.28;5023030;28;19978;-69
2023/11/08 05:32:10;;;;;;;;;;;;;;;9.96;100.00;99447.81;5030521;28;19917;-70
2023/11/08 05:34:37;;;;;;;;;;;;;;;9.86;100.00;99454.53;5021141;28;20387;-70
2023/11/08 05:37:04;;;;;;;;;;;;;;;9.49;100.00;99470.81;5027577;28;19917;-69
2023/11/08 05:39:31;;;;;;;;;;;;;;;9.10;100.00;99479.81;5026138;28;20431;-69
2023/11/08 05:41:57;;;;;;;;;;;;;;;8.99;100.00;99490.47;5030448;28;19924;-69
2023/11/08 05:44:24;;;;;;;;;;;;;;;8.70;100.00;99483.47;5028704;28;20007;-69
2023/11/08 05:46:49;;;;;;;;;;;;;;;8.85;100.00;99512.06;5027785;28;20011;-68
2023/11/08 05:49:15;;;;;;;;;;;;;;;9.06;100.00;99487.19;5030751;28;20004;-69
2023/11/08 05:51:40;;;;;;;;;;;;;;;9.16;100.00;99480.47;5032314;28;19923;-70
2023/11/08 05:54:06;;;;;;;;;;;;;;;9.27;100.00;99487.41;5031174;28;20020;-70
2023/11/08 05:56:31;;;;;;;;;;;;;;;9.32;100.00;99441.75;5013765;28;19966;-69
2023/11/08 05:58:57;;;;;;;;;;;;;;;9.41;100.00;99475.25;5013866;28;20004;-72
2023/11/08 06:01:23;;;;;;;;;;;;;;;9.19;100.00;99462.28;5028167;28;19948;-70
2023/11/08 06:03:51;;;;;;;;;;;;;;;9.35;100.00;99435.50;5032469;28;20012;-72
2023/11/08 06:06:16;;;;;;;;;;;;;;;9.45;100.00;99459.47;5033672;28;19923;-72
2023/11/08 06:08:44;;;;;;;;;;;;;;;9.58;100.00;99457.69;5031893;28;19916;-72
2023/11/08 06:11:14;;;;;;;;;;;;;;;9.76;100.00;99485.59;5019459;28;20366;-71
2023/11/08 06:13:40;;;;;;;;;;;;;;;9.88;100.00;99480.19;5025780;28;19918;-72
2023/11/08 06:16:06;;;;;;;;;;;;;;;9.96;100.00;99487.72;5013838;28;19921;-72
2023/11/08 06:18:31;;;;;;;;;;;;;;;10.06;100.00;99494.13;5014633;28;20810;-70
2023/11/08 06:20:57;;;;;;;;;;;;;;;9.96;100.00;99478.56;5021889;28;19917;-69
2023/11/08 06:23:22;;;;;;;;;;;;;;;10.20;100.00;99480.00;5028972;28;20395;-68
2023/11/08 06:25:48;;;;;;;;;;;;;;;10.17;100.00;99475.03;5031979;28;19913;-68
2023/11/08 06:28:14;;;;;;;;;;;;;;;10.10;100.00;99481.13;5031782;28;19924;-69
2023/11/08 06:30:39;;;;;;;;;;;;;;;10.30;100.00;99485.19;5029096;28;19955;-68
2023/11/08 06:33:04;;;;;;;;;;;;;;;10.43;100.00;99502.97;5028052;28;19992;-67
2023/11/08 06:35:30;;;;;;;;;;;;;;;10.52;100.00;99487.00;5018796;28;19924;-66
2023/11/08 06:37:56;;;;;;;;;;;;;;;10.47;100.00;99489.94;5028509;28;19991;-66
2023/11/08 06:40:22;;;;;;;;;;;;;;;10.61;100.00;99472.13;5026126;28;20418;-67
2023/11/08 06:42:48;;;;;;;;;;;;;;;10.76;100.00;99480.00;5023552;28;19928;-67
2023/11/08 06:45:13;;;;;;;;;;;;;;;10.77;100.00;99469.59;5028438;28;19917;-69
2023/11/08 06:47:39;;;;;;;;;;;;;;;10.71;100.00;99468.97;5023262;28;19943;-68
2023/11/08 06:50:04;;;;;;;;;;;;;;;10.77;100.00;99469.59;5021502;28;19986;-68
2023/11/08 06:52:29;;;;;;;;;;;;;;;10.90;100.00;99474.13;5027401;28;19939;-68
2023/11/08 06:54:55;;;;;;;;;;;;;;;10.93;100.00;99467.06;5025271;28;19917;-68
2023/11/08 06:57:20;;;;;;;;;;;;;;;11.15;100.00;99470.72;5032883;28;19920;-69
2023/11/08 06:59:45;;;;;;;;;;;;;;;11.16;100.00;99463.97;5036915;28;19917;-67
2023/11/08 07:02:11;;;;;;;;;;;;;;;11.42;100.00;99447.00;5016709;28;19932;-67
2023/11/08 07:04:36;;;;;;;;;;;;;;;11.44;100.00;99452.22;5021534;28;20470;-67
2023/11/08 07:07:02;;;;;;;;;;;;;;;11.66;100.00;99442.69;5026907;28;19917;-69
2023/11/08 07:09:27;;;;;;;;;;;;;;;11.80;100.00;99423.59;5025951;28;20311;-68
2023/11/08 07:11:53;;;;;;;;;;;;;;;11.85;100.00;99438.53;5031803;28;19967;-68
2023/11/08 07:14:19;;;;;;;;;;;;;;;12.01;100.00;99452.72;5026682;28;19960;-68
2023/11/08 07:16:44;;;;;;;;;;;;;;;12.14;100.00;99445.22;5021390;28;19951;-69
2023/11/08 07:19:12;;;;;;;;;;;;;;;12.23;100.00;99436.69;5028760;28;20056;-68
2023/11/08 07:21:37;;;;;;;;;;;;;;;12.24;100.00;99436.34;5024539;28;19916;-68
2023/11/08 07:24:03;;;;;;;;;;;;;;;12.32;100.00;99418.59;5016987;28;19919;-67
2023/11/08 07:26:28;;;;;;;;;;;;;;;12.52;100.00;99426.44;5022563;28;19983;-68
2023/11/08 07:28:53;;;;;;;;;;;;;;;12.55;100.00;99423.78;5018630;28;19921;-68
2023/11/08 07:31:18;;;;;;;;;;;;;;;12.63;100.00;99427.63;5028985;28;19975;-70
2023/11/08 07:33:44;;;;;;;;;;;;;;;12.67;100.00;99433.38;5036406;28;19917;-72
2023/11/08 07:36:09;;;;;;;;;;;;;;;12.71;100.00;99425.88;5030468;28;19917;-71
2023/11/08 07:38:35;;;;;;;;;;;;;;;12.74;100.00;99433.63;5022869;28;19917;-71
2023/11/08 07:41:02;;;;;;;;;;;;;;;12.75;100.00;99430.44;5029401;28;19917;-70
2023/11/08 07:43:28;;;;;;;;;;;;;;;12.98;100.00;99424.34;5029610;28;19917;-70
2023/11/08 07:45:53;;;;;;;;;;;;;;;13.05;100.00;99427.41;5017954;28;19921;-69
2023/11/08 07:48:18;;;;;;;;;;;;;;;13.01;100.00;99426.44;5021780;28;19925;-69
2023/11/08 07:50:44;;;;;;;;;;;;;;;13.21;100.00;99426.66;5029962;28;19917;-69
2023/11/08 07:53:09;;;;;;;;;;;;;;;13.12;100.00;99425.97;5030667;28;20371;-68
2023/11/08 07:55:34;;;;;;;;;;;;;;;13.10;99.61;99431.94;5029408;28;19932;-68
2023/11/08 07:58:02;;;;;;;;;;;;;;;13.17;100.00;99418.13;5025271;28;19932;-68
2023/11/08 08:00:28;;;;;;;;;;;;;;;13.36;100.00;99418.66;5021349;28;19917;-69
2023/11/08 08:02:53;;;;;;;;;;;;;;;13.59;98.42;99427.41;5027859;28;19967;-65
2023/11/08 08:05:19;;;;;;;;;;;;;;;13.61;97.61;99425.06;5025074;28;19928;-68
2023/11/08 08:07:44;;;;;;;;;;;;;;;13.84;97.11;99430.13;5030274;28;19996;-69
2023/11/08 08:10:12;;;;;;;;;;;;;;;13.94;96.80;99440.88;5028429;28;19964;-69
2023/11/08 08:12:37;;;;;;;;;;;;;;;14.03;95.13;99435.06;5031377;28;19913;-68
2023/11/08 08:15:04;;;;;;;;;;;;;;;13.83;95.75;99437.72;5027782;28;19914;-67
2023/11/08 08:17:29;;;;;;;;;;;;;;;13.94;96.22;99440.88;5030166;28;19921;-68
2023/11/08 08:19:55;;;;;;;;;;;;;;;14.10;92.72;99428.81;5028380;28;19967;-68
2023/11/08 08:22:21;;;;;;;;;;;;;;;14.22;93.50;99430.75;5030174;28;20384;-68
2023/11/08 08:24:46;;;;;;;;;;;;;;;14.38;92.52;99437.22;5030353;28;19920;-68
2023/11/08 08:27:12;;;;;;;;;;;;;;;14.48;90.72;99429.38;5029849;28;20406;-68
2023/11/08 08:29:37;;;;;;;;;;;;;;;14.36;90.81;99431.13;5029812;28;19924;-68
2023/11/08 08:32:03;;;;;;;;;;;;;;;14.40;92.50;99437.66;5032709;28;19917;-68
2023/11/08 08:34:28;;;;;;;;;;;;;;;14.56;92.33;99445.28;5032939;28;19917;-68
2023/11/08 08:36:54;;;;;;;;;;;;;;;14.67;93.21;99452.00;5034846;28;20455;-68
2023/11/08 08:39:24;;;;;;;;;;;;;;;14.81;91.06;99445.13;5033625;28;19924;-66
2023/11/08 08:41:49;;;;;;;;;;;;;;;14.99;90.95;99435.13;5033410;28;19924;-66
2023/11/08 08:44:14;;;;;;;;;;;;;;;15.21;88.74;99437.63;5032818;28;20350;-67
2023/11/08 08:46:40;;;;;;;;;;;;;;;15.22;87.97;99442.06;5034927;28;19913;-66
2023/11/08 08:49:05;;;;;;;;;;;;;;;15.28;88.25;99440.63;5034705;28;19921;-66
2023/11/08 08:51:31;;;;;;;;;;;;;;;15.14;88.78;99453.19;5032931;28;19916;-66
2023/11/08 08:53:56;;;;;;;;;;;;;;;15.26;88.01;99443.78;5032012;28;19921;-67
2023/11/08 08:56:23;;;;;;;;;;;;;;;15.43;88.59;99442.56;5027109;28;19929;-67
2023/11/08 08:58:49;;;;;;;;;;;;;;;15.36;86.97;99441.59;5028384;28;20339;-67
2023/11/08 09:01:18;;;;;;;;;;;;;;;15.38;85.74;99445.66;5033347;28;19923;-67
2023/11/08 09:03:44;;;;;;;;;;;;;;;15.58;85.87;99448.50;5032960;28;19917;-67
2023/11/08 09:06:09;;;;;;;;;;;;;;;15.63;85.96;99444.56;5029736;28;20411;-67
2023/11/08 09:08:34;;;;;;;;;;;;;;;15.53;84.98;99431.91;5022331;28;19921;-66
2023/11/08 09:11:00;;;;;;;;;;;;;;;15.89;84.94;99429.00;5032682;28;19971;-67
2023/11/08 09:13:25;;;;;;;;;;;;;;;16.14;83.42;99418.22;5028711;28;19972;-66
2023/11/08 09:15:52;;;;;;;;;;;;;;;16.24;80.96;99409.16;5034068;28;19921;-67
2023/11/08 09:18:17;;;;;;;;;;;;;;;16.21;81.21;99409.09;5033726;28;19924;-68
2023/11/08 09:20:44;;;;;;;;;;;;;;;16.24;80.87;99416.78;5033244;28;19913;-67
2023/11/08 09:23:09;;;;;;;;;;;;;;;16.13;80.60;99423.03;5021928;28;20026;-67
2023/11/08 09:25:35;;;;;;;;;;;;;;;16.28;82.38;99414.84;5026896;28;19956;-66
2023/11/08 09:28:00;;;;;;;;;;;;;;;16.46;81.14;99397.41;5034260;28;19956;-67
2023/11/08 09:30:26;;;;;;;;;;;;;;;16.64;80.87;99369.50;5034436;28;19913;-67
2023/11/08 09:32:51;;;;;;;;;;;;;;;16.88;78.03;99354.09;5034522;28;20304;-67
2023/11/08 09:35:16;;;;;;;;;;;;;;;17.08;77.18;99356.84;5032524;28;19917;-67
2023/11/08 09:37:42;;;;;;;;;;;;;;;17.40;77.25;99362.13;5028894;28;19921;-66
2023/11/08 09:40:10;;;;;;;;;;;;;;;17.55;74.71;99357.44;5032489;28;19920;-66
2023/11/08 09:42:35;;;;;;;;;;;;;;;17.68;73.34;99343.88;5031874;28;19921;-66
2023/11/08 09:45:01;;;;;;;;;;;;;;;17.88;73.36;99343.69;5029491;28;19917;-66
2023/11/08 09:47:27;;;;;;;;;;;;;;;17.81;73.38;99338.78;5023803;28;19917;-66
2023/11/08 09:49:53;;;;;;;;;;;;;;;17.76;72.63;99328.63;5012838;28;20619;-67
2023/11/08 09:52:19;;;;;;;;;;;;;;;17.54;72.04;99319.88;5014150;28;19920;-67
2023/11/08 09:54:44;;;;;;;;;;;;;;;17.50;73.63;99316.22;5021955;28;19917;-66
2023/11/08 09:57:11;;;;;;;;;;;;;;;17.51;74.62;99303.69;5032014;28;19978;-67
2023/11/08 09:59:39;;;;;;;;;;;;;;;17.47;74.83;99300.00;5031766;28;19917;-67
2023/11/08 10:02:06;;;;;;;;;;;;;;;17.64;74.56;99292.91;5027810;28;20018;-66
2023/11/08 10:04:32;;;;;;;;;;;;;;;17.66;74.67;99284.84;5026876;28;19924;-66
2023/11/08 10:06:57;;;;;;;;;;;;;;;17.69;74.46;99291.75;5026259;28;19921;-66
2023/11/08 10:09:31;;;;;;;;;;;;;;;17.67;73.38;99282.84;5029172;28;19957;-66
2023/11/08 10:11:57;;;;;;;;;;;;;;;17.51;75.36;99286.75;5033250;28;20265;-65
2023/11/08 10:14:34;;;;;;;;;;;;;;;17.61;74.36;99281.56;5028117;28;20477;-66
2023/11/08 10:17:00;;;;;;;;;;;;;;;17.43;75.50;99292.66;5018690;28;20308;-66
2023/11/08 10:19:47;;;;;;;;;;;;;;;17.60;74.10;99291.25;5027807;28;19919;-66
2023/11/08 10:22:19;;;;;;;;;;;;;;;17.50;75.03;99299.25;5012933;28;20440;-67
2023/11/08 10:24:57;;;;;;;;;;;;;;;17.48;75.16;99301.63;5024025;28;20315;-67
2023/11/08 10:27:23;;;;;;;;;;;;;;;17.42;74.34;99291.88;5024261;28;19921;-67
2023/11/08 10:29:50;;;;;;;;;;;;;;;17.35;75.83;99294.59;5024258;28;19936;-67
2023/11/08 10:32:19;;;;;;;;;;;;;;;17.46;76.33;99286.28;5028848;28;20047;-69
2023/11/08 10:34:45;;;;;;;;;;;;;;;17.11;76.96;99306.03;5025881;28;20017;-67
2023/11/08 10:37:21;;;;;;;;;;;;;;;17.16;76.61;99289.94;5030250;28;19968;-67
2023/11/08 10:39:46;;;;;;;;;;;;;;;17.17;74.57;99302.88;5029252;28;19913;-67
2023/11/08 10:42:12;;;;;;;;;;;;;;;17.00;75.54;99316.38;5029801;28;19913;-67
2023/11/08 10:44:37;;;;;;;;;;;;;;;17.13;75.87;99283.03;5030670;28;19917;-67
2023/11/08 10:47:02;;;;;;;;;;;;;;;17.06;76.74;99317.66;5031233;28;19924;-67
2023/11/08 10:49:28;;;;;;;;;;;;;;;16.91;77.25;99329.94;5031303;28;19917;-67
2023/11/08 10:51:54;;;;;;;;;;;;;;;16.81;76.92;99325.78;5028661;28;19917;-67
2023/11/08 10:54:19;;;;;;;;;;;;;;;16.55;79.08;99338.69;5027527;28;20020;-67
2023/11/08 10:56:48;;;;;;;;;;;;;;;16.82;79.04;99307.63;5024086;28;19936;-68
2023/11/08 10:59:15;;;;;;;;;;;;;;;16.90;78.82;99331.97;5020686;28;20024;-68
2023/11/08 11:01:42;;;;;;;;;;;;;;;16.58;80.52;99343.59;5028348;28;20324;-68
2023/11/08 11:04:11;;;;;;;;;;;;;;;16.65;79.90;99314.63;5027753;28;19924;-68
2023/11/08 11:06:37;;;;;;;;;;;;;;;16.59;79.00;99347.19;5026249;28;20454;-68
2023/11/08 11:09:04;;;;;;;;;;;;;;;16.35;79.46;99333.13;5012659;28;19917;-65
2023/11/08 11:11:34;;;;;;;;;;;;;;;16.54;79.03;99339.91;5024101;28;19921;-65
2023/11/08 11:14:07;;;;;;;;;;;;;;;16.30;80.08;99324.16;5018120;28;19932;-67
2023/11/08 11:16:36;;;;;;;;;;;;;;;16.73;78.76;99309.91;5029872;28;19932;-66
2023/11/08 11:19:08;;;;;;;;;;;;;;;16.59;77.72;99318.97;5040152;28;19921;-67
2023/11/08 11:21:43;;;;;;;;;;;;;;;16.75;77.67;99316.00;5028022;28;20057;-67
2023/11/08 11:24:27;;;;;;;;;;;;;;;16.91;77.27;99311.00;5030246;28;19917;-65
2023/11/08 11:26:53;;;;;;;;;;;;;;;16.88;77.07;99302.47;5014166;28;19964;-67
2023/11/08 11:29:18;;;;;;;;;;;;;;;17.04;76.51;99294.63;5017952;28;20384;-66
2023/11/08 11:31:44;;;;;;;;;;;;;;;17.19;76.64;99289.16;5027139;28;19928;-66
2023/11/08 11:37:06;;;;;;;;;;;;;;;17.33;75.16;99286.53;5026033;28;20387;-65
2023/11/08 11:39:32;;;;;;;;;;;;;;;17.45;73.31;99276.97;5028411;28;19940;-67
2023/11/08 11:41:58;;;;;;;;;;;;;;;17.53;73.77;99275.84;5025921;28;20102;-67
2023/11/08 11:44:36;;;;;;;;;;;;;;;17.61;73.84;99270.25;5025053;28;19956;-67
2023/11/08 11:47:07;;;;;;;;;;;;;;;17.70;73.04;99273.59;5024637;28;19917;-67
2023/11/08 11:49:36;;;;;;;;;;;;;;;17.77;72.86;99284.16;5029141;28;19970;-67
2023/11/08 11:52:01;;;;;;;;;;;;;;;17.78;72.62;99289.44;5028018;28;19918;-69
2023/11/08 11:54:28;;;;;;;;;;;;;;;17.85;72.76;99293.53;5026171;28;19920;-69
2023/11/08 11:56:53;;;;;;;;;;;;;;;17.63;73.33;99302.59;5019636;28;19921;-69
2023/11/08 11:59:19;;;;;;;;;;;;;;;17.49;74.06;99305.28;5016644;28;20457;-68
2023/11/08 12:01:45;;;;;;;;;;;;;;;17.34;75.84;99299.47;5028634;28;20400;-68
2023/11/08 12:04:10;;;;;;;;;;;;;;;17.21;75.65;99298.09;5027896;28;19952;-68
2023/11/08 12:06:35;;;;;;;;;;;;;;;17.00;77.53;99322.03;5029781;28;19913;-68
2023/11/08 12:09:00;;;;;;;;;;;;;;;16.96;78.17;99327.59;5027899;28;19929;-68
2023/11/08 12:11:26;;;;;;;;;;;;;;;16.94;78.31;99324.34;5028760;28;20387;-68
2023/11/08 12:13:55;;;;;;;;;;;;;;;16.82;79.26;99324.56;5029696;28;19917;-68
2023/11/08 12:16:20;;;;;;;;;;;;;;;16.93;77.73;99322.72;5028072;28;19921;-66
2023/11/08 12:18:46;;;;;;;;;;;;;;;16.77;77.92;99336.19;5029437;28;19913;-66
2023/11/08 12:21:13;;;;;;;;;;;;;;;16.83;76.61;99338.34;5029830;28;19975;-66
2023/11/08 12:23:38;;;;;;;;;;;;;;;16.83;77.32;99337.50;5028007;28;19939;-66
2023/11/08 12:26:03;;;;;;;;;;;;;;;16.96;77.35;99327.59;5029462;28;20447;-66
2023/11/08 12:28:29;;;;;;;;;;;;;;;17.04;76.69;99327.75;5028461;28;20024;-67
2023/11/08 12:31:21;;;;;;;;;;;;;;;17.05;77.13;99338.63;5026590;28;20015;-67
2023/11/08 12:33:47;;;;;;;;;;;;;;;16.86;78.33;99350.84;5022841;28;19917;-67
2023/11/08 12:36:12;;;;;;;;;;;;;;;16.72;77.59;99353.47;5024962;28;19964;-67
2023/11/08 12:38:39;;;;;;;;;;;;;;;16.72;76.95;99351.47;5028119;28;19948;-67
2023/11/08 12:41:05;;;;;;;;;;;;;;;16.70;77.41;99326.44;5021748;28;19921;-67
2023/11/08 12:43:31;;;;;;;;;;;;;;;17.06;76.51;99320.50;5028109;28;19975;-67